createdAt,value
2023-03-30T00:01:45.897Z,7.40
2023-03-30T00:04:23.056Z,7.20
2023-03-30T00:06:57.647Z,7.80
2023-03-30T00:09:33.243Z,8.00
2023-03-30T00:12:07.691Z,7.60
2023-03-30T00:14:42.944Z,8.30
2023-03-30T00:17:17.680Z,7.00
2023-03-30T00:19:52.335Z,7.50
2023-03-30T00:22:27.171Z,8.30
2023-03-30T00:25:01.631Z,8.10
2023-03-30T00:27:36.165Z,9.10
2023-03-30T00:30:15.342Z,10.10
2023-03-30T00:32:50.144Z,9.70
2023-03-30T00:35:26.514Z,11.20
2023-03-30T00:38:03.218Z,9.20
2023-03-30T00:40:38.491Z,7.20
2023-03-30T00:43:16.640Z,7.10
2023-03-30T00:45:52.008Z,7.40
2023-03-30T00:48:31.226Z,7.10
2023-03-30T00:51:10.848Z,7.50
2023-03-30T00:53:48.369Z,7.00
2023-03-30T00:56:28.216Z,6.90
2023-03-30T00:59:03.799Z,7.10
2023-03-30T01:01:40.366Z,6.40
2023-03-30T01:04:14.475Z,6.50
2023-03-30T01:06:52.197Z,7.30
2023-03-30T01:09:27.439Z,7.30
2023-03-30T01:12:01.541Z,6.60
2023-03-30T01:14:37.222Z,7.00
2023-03-30T01:17:29.720Z,6.60
2023-03-30T01:20:56.620Z,7.40
2023-03-30T01:24:24.117Z,6.90
2023-03-30T01:27:04.357Z,6.80
2023-03-30T01:30:09.162Z,7.90
2023-03-30T01:33:22.877Z,7.10
2023-03-30T01:36:42.008Z,6.70
2023-03-30T01:39:39.766Z,5.60
2023-03-30T01:42:24.082Z,5.50
2023-03-30T01:45:10.291Z,6.40
2023-03-30T01:47:53.197Z,6.70
2023-03-30T01:50:36.855Z,6.00
2023-03-30T01:53:19.109Z,5.70
2023-03-30T01:56:02.803Z,5.80
2023-03-30T01:58:44.060Z,5.90
2023-03-30T02:01:21.711Z,5.80
2023-03-30T02:04:02.064Z,6.50
2023-03-30T02:06:43.237Z,6.30
2023-03-30T02:09:23.882Z,5.40
2023-03-30T02:12:04.114Z,5.80
2023-03-30T02:14:43.000Z,5.70
2023-03-30T02:17:23.632Z,5.40
2023-03-30T02:19:59.521Z,5.20
2023-03-30T02:22:34.732Z,4.50
2023-03-30T02:25:10.618Z,4.20
2023-03-30T02:27:45.920Z,4.60
2023-03-30T02:30:22.666Z,4.80
2023-03-30T02:33:00.166Z,4.90
2023-03-30T02:36:02.068Z,5.10
2023-03-30T02:39:13.925Z,4.80
2023-03-30T02:42:27.880Z,4.70
2023-03-30T02:45:25.234Z,4.30
2023-03-30T02:48:18.103Z,4.50
2023-03-30T02:51:04.639Z,4.00
2023-03-30T02:54:12.349Z,3.90
2023-03-30T02:57:16.383Z,4.30
2023-03-30T03:00:00.008Z,4.40
2023-03-30T03:02:41.441Z,4.30
2023-03-30T03:05:32.619Z,4.10
2023-03-30T03:08:23.603Z,4.80
2023-03-30T03:10:58.055Z,4.20
2023-03-30T03:13:36.841Z,4.80
2023-03-30T03:16:15.632Z,4.80
2023-03-30T03:19:03.605Z,6.00
2023-03-30T03:21:37.975Z,6.40
2023-03-30T03:24:13.953Z,8.50
2023-03-30T03:27:06.725Z,8.40
2023-03-30T03:29:50.012Z,8.50
2023-03-30T03:32:24.142Z,6.80
2023-03-30T03:34:58.533Z,8.30
2023-03-30T03:37:33.274Z,6.80
2023-03-30T03:40:09.445Z,6.70
2023-03-30T03:42:43.656Z,6.40
2023-03-30T03:45:19.973Z,6.80
2023-03-30T03:48:05.956Z,6.00
2023-03-30T03:50:56.042Z,5.80
2023-03-30T03:53:31.302Z,6.50
2023-03-30T03:56:09.418Z,6.60
2023-03-30T03:58:43.505Z,6.80
2023-03-30T04:01:17.567Z,6.70
2023-03-30T04:03:51.657Z,6.20
2023-03-30T04:06:26.303Z,6.50
2023-03-30T04:09:01.861Z,6.20
2023-03-30T04:12:05.654Z,6.40
2023-03-30T04:14:59.704Z,5.40
2023-03-30T04:17:37.353Z,5.00
2023-03-30T04:20:37.842Z,4.70
2023-03-30T04:23:31.238Z,5.70
2023-03-30T04:26:23.868Z,6.50
2023-03-30T04:29:08.256Z,5.70
2023-03-30T04:32:08.638Z,5.70
2023-03-30T04:34:54.881Z,6.90
2023-03-30T04:37:52.525Z,6.90
2023-03-30T04:40:27.000Z,6.60
2023-03-30T04:43:02.868Z,7.10
2023-03-30T04:46:06.330Z,5.80
2023-03-30T04:48:58.715Z,6.40
2023-03-30T04:51:51.710Z,6.50
2023-03-30T04:55:01.296Z,6.20
2023-03-30T04:57:36.236Z,7.30
2023-03-30T05:00:46.024Z,6.80
2023-03-30T05:03:40.652Z,7.30
2023-03-30T05:06:35.739Z,6.70
2023-03-30T05:09:29.305Z,6.60
2023-03-30T05:12:17.909Z,6.50
2023-03-30T05:15:02.520Z,5.70
2023-03-30T05:17:55.063Z,5.90
2023-03-30T05:20:49.761Z,7.20
2023-03-30T05:23:40.973Z,7.30
2023-03-30T05:26:28.135Z,6.80
2023-03-30T05:29:25.286Z,6.40
2023-03-30T05:31:59.334Z,5.40
2023-03-30T05:34:52.185Z,24.70
2023-03-30T05:37:49.657Z,27.30
2023-03-30T05:40:57.177Z,26.40
2023-03-30T05:44:03.715Z,20.90
2023-03-30T05:46:56.613Z,19.00
2023-03-30T05:49:47.663Z,16.20
2023-03-30T05:52:54.082Z,23.00
2023-03-30T05:55:40.249Z,12.60
2023-03-30T05:58:23.282Z,10.90
2023-03-30T06:01:14.503Z,14.80
2023-03-30T06:03:49.804Z,11.40
2023-03-30T06:06:24.402Z,11.30
2023-03-30T06:08:58.802Z,8.00
2023-03-30T06:11:33.284Z,11.20
2023-03-30T06:14:14.052Z,7.80
2023-03-30T06:16:49.881Z,7.40
2023-03-30T06:19:24.077Z,7.00
2023-03-30T06:21:58.754Z,6.30
2023-03-30T06:24:47.512Z,6.50
2023-03-30T06:27:21.940Z,6.10
2023-03-30T06:29:56.146Z,6.70
2023-03-30T06:32:31.091Z,6.50
2023-03-30T06:35:29.579Z,7.80
2023-03-30T06:38:04.546Z,6.80
2023-03-30T06:40:38.616Z,5.90
2023-03-30T06:43:19.590Z,5.90
2023-03-30T06:46:07.279Z,6.10
2023-03-30T06:48:42.072Z,6.20
2023-03-30T06:51:45.778Z,6.70
2023-03-30T06:54:20.852Z,7.20
2023-03-30T06:57:01.410Z,7.10
2023-03-30T06:59:36.263Z,6.70
2023-03-30T07:02:30.252Z,6.70
2023-03-30T07:05:16.945Z,7.40
2023-03-30T07:08:04.542Z,8.60
2023-03-30T07:10:39.231Z,7.50
2023-03-30T07:13:16.764Z,9.70
2023-03-30T07:15:53.695Z,8.20
2023-03-30T07:18:29.291Z,8.90
2023-03-30T07:21:04.938Z,7.70
2023-03-30T07:23:49.028Z,7.50
2023-03-30T07:26:33.436Z,7.50
2023-03-30T07:29:15.703Z,7.00
2023-03-30T07:31:52.574Z,6.20
2023-03-30T07:34:27.907Z,5.80
2023-03-30T07:37:09.899Z,4.70
2023-03-30T07:39:53.885Z,5.90
2023-03-30T07:42:28.898Z,5.60
2023-03-30T07:45:06.440Z,5.80
2023-03-30T07:47:41.859Z,4.90
2023-03-30T07:50:18.689Z,5.50
2023-03-30T07:52:56.009Z,7.10
2023-03-30T07:55:32.973Z,4.50
2023-03-30T07:58:18.219Z,4.40
2023-03-30T08:00:55.155Z,5.40
2023-03-30T08:03:50.996Z,4.60
2023-03-30T08:06:25.642Z,11.80
2023-03-30T08:09:05.167Z,6.50
2023-03-30T08:11:43.317Z,8.30
2023-03-30T08:14:17.839Z,15.60
2023-03-30T08:16:52.753Z,8.50
2023-03-30T08:19:30.892Z,4.10
2023-03-30T08:22:05.403Z,7.40
2023-03-30T08:24:41.997Z,5.00
2023-03-30T08:27:18.549Z,6.30
2023-03-30T08:29:55.057Z,4.10
2023-03-30T08:32:30.199Z,4.70
2023-03-30T08:35:06.658Z,5.80
2023-03-30T08:37:41.930Z,4.30
2023-03-30T08:40:19.953Z,7.00
2023-03-30T08:43:27.359Z,7.50
2023-03-30T08:46:06.220Z,5.90
2023-03-30T08:48:43.114Z,5.30
2023-03-30T08:51:29.411Z,4.20
2023-03-30T08:54:07.082Z,4.60
2023-03-30T08:56:49.663Z,3.90
2023-03-30T08:59:35.230Z,3.80
2023-03-30T09:02:23.449Z,4.20
2023-03-30T09:05:19.136Z,4.50
2023-03-30T09:08:02.770Z,5.10
2023-03-30T09:10:47.932Z,3.20
2023-03-30T09:13:35.075Z,3.40
2023-03-30T09:16:20.529Z,3.30
2023-03-30T09:18:58.718Z,3.60
2023-03-30T09:21:35.177Z,3.70
2023-03-30T09:24:20.319Z,3.50
2023-03-30T09:27:05.120Z,3.60
2023-03-30T09:29:48.624Z,3.20
2023-03-30T09:32:38.980Z,3.30
2023-03-30T09:35:25.079Z,3.10
2023-03-30T09:37:59.449Z,3.50
2023-03-30T09:40:52.790Z,3.00
2023-03-30T09:43:38.064Z,3.10
2023-03-30T09:46:15.699Z,2.90
2023-03-30T09:48:51.631Z,2.80
2023-03-30T09:51:33.413Z,2.70
2023-03-30T09:54:17.574Z,2.90
2023-03-30T09:56:59.991Z,3.00
2023-03-30T09:59:41.458Z,2.60
2023-03-30T10:02:25.595Z,2.50
2023-03-30T10:05:06.887Z,3.00
2023-03-30T10:07:45.001Z,2.50
2023-03-30T10:10:34.143Z,3.10
2023-03-30T10:13:15.714Z,2.60
2023-03-30T10:15:56.470Z,2.80
2023-03-30T10:18:41.041Z,3.10
2023-03-30T10:21:27.377Z,3.10
2023-03-30T10:24:22.274Z,2.60
2023-03-30T10:27:00.847Z,3.10
2023-03-30T10:29:37.563Z,3.00
2023-03-30T10:32:20.323Z,3.20
2023-03-30T10:35:02.163Z,2.80
2023-03-30T10:37:41.713Z,3.10
2023-03-30T10:40:23.259Z,3.00
2023-03-30T10:43:00.972Z,3.10
2023-03-30T10:45:47.251Z,4.20
2023-03-30T10:48:46.797Z,3.20
2023-03-30T10:51:41.610Z,3.00
2023-03-30T10:54:29.310Z,4.10
2023-03-30T10:57:10.925Z,3.20
2023-03-30T11:00:19.226Z,3.60
2023-03-30T11:03:05.872Z,3.30
2023-03-30T11:05:47.584Z,3.40
2023-03-30T11:08:28.252Z,3.10
2023-03-30T11:11:04.299Z,2.60
2023-03-30T11:13:47.617Z,2.50
2023-03-30T11:16:40.616Z,2.30
2023-03-30T11:19:24.099Z,2.10
2023-03-30T11:22:10.051Z,2.50
2023-03-30T11:24:52.805Z,2.50
2023-03-30T11:27:35.711Z,2.30
2023-03-30T11:30:23.238Z,3.00
2023-03-30T11:33:03.417Z,2.70
2023-03-30T11:35:48.351Z,2.30
2023-03-30T11:38:42.890Z,3.00
2023-03-30T11:41:24.027Z,2.60
2023-03-30T11:44:01.853Z,2.80
2023-03-30T11:46:48.308Z,3.20
2023-03-30T11:49:42.083Z,3.10
2023-03-30T11:52:33.027Z,3.60
2023-03-30T11:55:30.478Z,3.40
2023-03-30T11:58:23.303Z,3.10
2023-03-30T12:01:32.821Z,3.60
2023-03-30T12:04:21.067Z,3.70
2023-03-30T12:07:01.889Z,3.90
2023-03-30T12:09:44.448Z,3.70
2023-03-30T12:12:25.926Z,3.90
2023-03-30T12:15:23.249Z,3.40
2023-03-30T12:18:04.460Z,3.00
2023-03-30T12:20:49.018Z,3.10
2023-03-30T12:23:43.749Z,3.50
2023-03-30T12:26:35.082Z,3.10
2023-03-30T12:32:08.129Z,3.60
2023-03-30T12:34:46.997Z,3.50
2023-03-30T12:37:28.690Z,3.20
2023-03-30T12:40:10.881Z,4.00
2023-03-30T12:43:03.244Z,3.00
2023-03-30T12:45:50.162Z,4.30
2023-03-30T12:48:44.667Z,4.00
2023-03-30T12:51:39.906Z,3.60
2023-03-30T12:55:00.528Z,4.20
2023-03-30T12:57:55.796Z,4.60
2023-03-30T13:01:05.174Z,4.50
2023-03-30T13:03:49.642Z,3.80
2023-03-30T13:06:34.012Z,4.00
2023-03-30T13:09:36.117Z,4.30
2023-03-30T13:12:34.128Z,4.30
2023-03-30T13:15:36.473Z,3.60
2023-03-30T13:18:53.192Z,3.40
2023-03-30T13:21:29.643Z,3.70
2023-03-30T13:24:26.271Z,3.50
2023-03-30T13:27:27.170Z,3.70
2023-03-30T13:30:07.965Z,3.50
2023-03-30T13:33:10.600Z,3.50
2023-03-30T13:36:04.436Z,3.30
2023-03-30T13:39:01.724Z,3.50
2023-03-30T13:41:55.489Z,3.30
2023-03-30T13:44:54.857Z,3.30
2023-03-30T13:48:01.707Z,3.30
2023-03-30T13:50:38.825Z,3.50
2023-03-30T13:53:20.370Z,2.40
2023-03-30T13:55:58.380Z,3.30
2023-03-30T13:58:37.018Z,2.60
2023-03-30T14:01:15.470Z,2.60
2023-03-30T14:03:56.574Z,2.80
2023-03-30T14:06:34.372Z,2.70
2023-03-30T14:09:24.167Z,2.30
2023-03-30T14:12:04.383Z,3.10
2023-03-30T14:14:47.179Z,2.80
2023-03-30T14:17:25.674Z,2.50
2023-03-30T14:20:23.337Z,3.00
2023-03-30T14:23:00.671Z,2.80
2023-03-30T14:25:40.447Z,2.70
2023-03-30T14:28:20.124Z,2.80
2023-03-30T14:31:03.278Z,2.60
2023-03-30T14:33:43.315Z,2.50
2023-03-30T14:36:20.689Z,2.30
2023-03-30T14:38:58.570Z,2.70
2023-03-30T14:41:34.164Z,2.70
2023-03-30T14:44:14.371Z,2.20
2023-03-30T14:46:52.728Z,2.40
2023-03-30T14:49:31.597Z,2.10
2023-03-30T14:52:12.071Z,2.10
2023-03-30T14:55:02.529Z,2.00
2023-03-30T14:57:43.506Z,2.70
2023-03-30T15:00:25.158Z,2.30
2023-03-30T15:03:03.232Z,2.30
2023-03-30T15:05:42.815Z,2.30
2023-03-30T15:08:26.495Z,2.60
2023-03-30T15:11:04.838Z,2.40
2023-03-30T15:13:44.979Z,2.80
2023-03-30T15:16:27.809Z,2.50
2023-03-30T15:19:11.960Z,2.70
2023-03-30T15:21:46.497Z,2.50
2023-03-30T15:24:26.275Z,2.70
2023-03-30T15:27:11.843Z,2.60
2023-03-30T15:29:50.097Z,2.80
2023-03-30T15:32:32.516Z,2.60
2023-03-30T15:35:22.420Z,2.30
2023-03-30T15:38:03.114Z,2.40
2023-03-30T15:40:44.823Z,2.30
2023-03-30T15:43:27.127Z,2.40
2023-03-30T15:46:08.233Z,2.10
2023-03-30T15:48:47.145Z,2.10
2023-03-30T15:51:28.032Z,2.10
2023-03-30T15:54:17.811Z,2.10
2023-03-30T15:57:04.046Z,1.70
2023-03-30T15:59:47.112Z,1.60
2023-03-30T16:02:25.828Z,2.10
2023-03-30T16:05:01.676Z,1.70
2023-03-30T16:07:42.704Z,1.60
2023-03-30T16:10:24.823Z,1.50
2023-03-30T16:13:01.424Z,1.70
2023-03-30T16:15:37.020Z,1.70
2023-03-30T16:18:14.142Z,1.70
2023-03-30T16:20:48.806Z,1.30
2023-03-30T16:23:24.645Z,1.50
2023-03-30T16:26:00.132Z,1.80
2023-03-30T16:28:36.642Z,1.40
2023-03-30T16:31:24.760Z,1.70
2023-03-30T16:33:58.992Z,1.70
2023-03-30T16:36:38.155Z,1.80
2023-03-30T16:39:23.824Z,1.60
2023-03-30T16:42:00.438Z,1.50
2023-03-30T16:44:36.396Z,1.70
2023-03-30T16:47:12.868Z,2.00
2023-03-30T16:49:47.676Z,1.60
2023-03-30T16:52:22.419Z,1.90
2023-03-30T16:54:56.605Z,1.70
2023-03-30T16:57:31.059Z,1.80
2023-03-30T17:00:10.902Z,2.10
2023-03-30T17:02:50.033Z,2.30
2023-03-30T17:05:26.911Z,2.00
2023-03-30T17:08:15.757Z,2.00
2023-03-30T17:10:52.213Z,1.90
2023-03-30T17:13:26.804Z,2.10
2023-03-30T17:16:03.027Z,2.10
2023-03-30T17:18:40.962Z,2.30
2023-03-30T17:21:21.958Z,3.10
2023-03-30T17:23:57.995Z,3.10
2023-03-30T17:26:33.589Z,3.30
2023-03-30T17:29:12.216Z,3.20
2023-03-30T17:31:47.982Z,3.40
2023-03-30T17:34:23.675Z,4.10
2023-03-30T17:36:58.943Z,3.00
2023-03-30T17:39:33.812Z,3.20
2023-03-30T17:42:08.698Z,2.80
2023-03-30T17:44:47.616Z,2.70
2023-03-30T17:47:25.730Z,2.70
2023-03-30T17:50:02.778Z,2.90
2023-03-30T17:52:39.218Z,3.00
2023-03-30T17:55:14.899Z,3.50
2023-03-30T17:57:52.007Z,2.80
2023-03-30T18:00:35.234Z,3.30
2023-03-30T18:03:11.986Z,2.60
2023-03-30T18:05:53.555Z,3.20
2023-03-30T18:08:29.341Z,3.40
2023-03-30T18:11:06.514Z,3.80
2023-03-30T18:13:43.160Z,4.00
2023-03-30T18:16:24.721Z,3.80
2023-03-30T18:19:01.183Z,4.20
2023-03-30T18:21:38.342Z,4.20
2023-03-30T18:24:13.700Z,4.00
2023-03-30T18:26:50.775Z,4.00
2023-03-30T18:29:30.517Z,4.40
2023-03-30T18:32:08.112Z,4.00
2023-03-30T18:34:44.018Z,4.60
2023-03-30T18:37:19.085Z,4.40
2023-03-30T18:39:53.719Z,4.70
2023-03-30T18:42:29.127Z,4.50
2023-03-30T18:45:08.054Z,4.30
2023-03-30T18:47:43.912Z,4.90
2023-03-30T18:50:31.010Z,4.60
2023-03-30T18:53:07.882Z,4.90
2023-03-30T18:55:46.141Z,4.20
2023-03-30T18:58:28.706Z,5.30
2023-03-30T19:03:35.501Z,4.60
2023-03-30T19:06:13.941Z,4.10
2023-03-30T19:08:48.580Z,4.50
2023-03-30T19:11:30.706Z,3.80
2023-03-30T19:14:08.552Z,3.70
2023-03-30T19:16:52.144Z,4.30
2023-03-30T19:19:31.878Z,3.30
2023-03-30T19:22:07.127Z,3.40
2023-03-30T19:24:45.257Z,2.80
2023-03-30T19:27:29.198Z,2.60
2023-03-30T19:30:18.564Z,2.90
2023-03-30T19:32:57.006Z,2.70
2023-03-30T19:35:33.190Z,2.40
2023-03-30T19:38:10.123Z,2.50
2023-03-30T19:40:46.098Z,2.20
2023-03-30T19:43:26.254Z,2.50
2023-03-30T19:46:08.796Z,2.40
2023-03-30T19:48:46.186Z,2.30
2023-03-30T19:51:25.131Z,2.60
2023-03-30T19:53:59.856Z,2.60
2023-03-30T19:56:39.701Z,2.60
2023-03-30T19:59:15.908Z,2.60
2023-03-30T20:01:53.617Z,2.50
2023-03-30T20:04:31.203Z,2.90
2023-03-30T20:07:10.230Z,2.80
2023-03-30T20:09:46.482Z,2.30
2023-03-30T20:12:21.769Z,2.50
2023-03-30T20:15:00.903Z,3.30
2023-03-30T20:17:36.983Z,2.60
2023-03-30T20:20:17.220Z,2.60
2023-03-30T20:22:55.908Z,3.30
2023-03-30T20:25:30.850Z,3.10
2023-03-30T20:28:09.311Z,2.90
2023-03-30T20:30:45.305Z,2.70
2023-03-30T20:33:21.927Z,3.80
2023-03-30T20:35:59.531Z,3.90
2023-03-30T20:38:34.882Z,3.90
2023-03-30T20:41:11.753Z,3.70
2023-03-30T20:43:56.942Z,4.30
2023-03-30T20:46:38.007Z,3.80
2023-03-30T20:49:15.872Z,3.70
2023-03-30T20:51:53.282Z,3.30
2023-03-30T20:54:28.045Z,4.30
2023-03-30T20:57:02.906Z,4.10
2023-03-30T20:59:38.012Z,3.20
2023-03-30T21:02:14.356Z,4.10
2023-03-30T21:04:50.548Z,3.80
2023-03-30T21:07:26.509Z,3.50
2023-03-30T21:10:01.157Z,4.00
2023-03-30T21:12:35.507Z,3.80
2023-03-30T21:15:12.311Z,3.90
2023-03-30T21:17:46.781Z,3.80
2023-03-30T21:20:21.382Z,3.20
2023-03-30T21:22:55.777Z,3.10
2023-03-30T21:25:31.354Z,2.60
2023-03-30T21:28:06.184Z,3.40
2023-03-30T21:30:41.413Z,3.00
2023-03-30T21:33:15.702Z,2.90
2023-03-30T21:35:54.310Z,2.80
2023-03-30T21:38:30.377Z,2.90
2023-03-30T21:41:07.928Z,2.90
2023-03-30T21:43:45.629Z,2.40
2023-03-30T21:46:22.480Z,3.40
2023-03-30T21:48:57.137Z,3.30
2023-03-30T21:51:33.215Z,3.40
2023-03-30T21:54:07.805Z,2.90
2023-03-30T21:56:42.118Z,3.10
2023-03-30T21:59:16.662Z,2.40
2023-03-30T22:01:50.776Z,2.60
2023-03-30T22:04:25.324Z,2.40
2023-03-30T22:06:59.595Z,2.40
2023-03-30T22:09:33.977Z,2.50
2023-03-30T22:12:09.034Z,2.00
2023-03-30T22:14:43.270Z,2.30
2023-03-30T22:17:18.795Z,2.30
2023-03-30T22:19:53.890Z,2.30
2023-03-30T22:22:28.166Z,2.40
2023-03-30T22:25:02.450Z,2.10
2023-03-30T22:27:37.325Z,1.90
2023-03-30T22:30:14.960Z,1.70
2023-03-30T22:32:49.324Z,2.50
2023-03-30T22:35:23.743Z,2.10
2023-03-30T22:37:58.089Z,2.00
2023-03-30T22:40:32.576Z,2.10
2023-03-30T22:43:07.050Z,2.20
2023-03-30T22:45:41.935Z,1.80
2023-03-30T22:48:16.158Z,1.90
2023-03-30T22:50:50.843Z,2.30
2023-03-30T22:53:25.168Z,1.80
2023-03-30T22:55:59.371Z,2.10
2023-03-30T22:58:33.584Z,1.80
2023-03-30T23:01:10.601Z,1.50
2023-03-30T23:03:45.198Z,2.10
2023-03-30T23:06:19.920Z,1.50
2023-03-30T23:08:54.673Z,1.90
2023-03-30T23:11:29.180Z,1.70
2023-03-30T23:14:06.193Z,1.70
2023-03-30T23:16:40.854Z,1.70
2023-03-30T23:19:16.117Z,2.00
2023-03-30T23:21:50.392Z,1.90
2023-03-30T23:24:25.118Z,1.60
2023-03-30T23:26:59.496Z,1.90
2023-03-30T23:29:33.866Z,2.10
2023-03-30T23:32:09.004Z,1.80
2023-03-30T23:34:43.455Z,2.00
2023-03-30T23:37:18.422Z,2.00
2023-03-30T23:39:53.142Z,1.70
2023-03-30T23:42:27.809Z,1.90
2023-03-30T23:45:02.401Z,2.40
2023-03-30T23:47:38.037Z,1.90
2023-03-30T23:50:13.990Z,1.40
2023-03-30T23:52:48.427Z,1.90
2023-03-30T23:55:24.655Z,1.90
2023-03-30T23:57:58.718Z,2.00
